sensor_id;sensor_type;location;lat;lon;timestamp;pressure;altitude;pressure_sealevel;temperature;humidity
63535;BME280;55128;50.230;18.944;2022-12-18T00:00:42;99881.16;;;-2.63;71.19
63535;BME280;55128;50.230;18.944;2022-12-18T00:05:50;99893.28;;;-2.64;71.15
63535;BME280;55128;50.230;18.944;2022-12-18T00:10:51;99890.94;;;-2.55;70.67
63535;BME280;55128;50.230;18.944;2022-12-18T00:15:51;99902.84;;;-2.63;70.99
63535;BME280;55128;50.230;18.944;2022-12-18T00:20:51;99906.41;;;-2.59;70.90
63535;BME280;55128;50.230;18.944;2022-12-18T00:25:52;99908.72;;;-2.70;70.69
63535;BME280;55128;50.230;18.944;2022-12-18T00:31:07;99917.28;;;-2.72;70.85
63535;BME280;55128;50.230;18.944;2022-12-18T00:36:20;99918.69;;;-2.84;70.87
63535;BME280;55128;50.230;18.944;2022-12-18T00:41:21;99919.97;;;-2.69;70.94
63535;BME280;55128;50.230;18.944;2022-12-18T00:46:40;99936.88;;;-2.54;70.43
63535;BME280;55128;50.230;18.944;2022-12-18T00:51:41;99938.59;;;-2.54;70.42
63535;BME280;55128;50.230;18.944;2022-12-18T00:56:41;99939.66;;;-2.47;70.37
63535;BME280;55128;50.230;18.944;2022-12-18T01:01:42;99952.31;;;-2.28;69.81
63535;BME280;55128;50.230;18.944;2022-12-18T01:06:42;99955.59;;;-2.35;69.97
63535;BME280;55128;50.230;18.944;2022-12-18T01:11:43;99961.72;;;-2.33;69.72
63535;BME280;55128;50.230;18.944;2022-12-18T01:16:43;99958.16;;;-2.37;69.51
63535;BME280;55128;50.230;18.944;2022-12-18T01:21:43;99959.97;;;-2.34;70.12
63535;BME280;55128;50.230;18.944;2022-12-18T01:26:44;99951.28;;;-2.35;69.77
63535;BME280;55128;50.230;18.944;2022-12-18T01:31:44;99960.59;;;-2.43;69.90
63535;BME280;55128;50.230;18.944;2022-12-18T01:36:44;99964.47;;;-2.28;70.09
63535;BME280;55128;50.230;18.944;2022-12-18T01:41:45;99960.06;;;-2.29;69.73
63535;BME280;55128;50.230;18.944;2022-12-18T01:47:04;99973.06;;;-2.29;69.68
63535;BME280;55128;50.230;18.944;2022-12-18T01:52:05;99974.50;;;-2.41;69.86
63535;BME280;55128;50.230;18.944;2022-12-18T01:57:05;99979.28;;;-2.56;70.39
63535;BME280;55128;50.230;18.944;2022-12-18T02:02:06;99996.28;;;-2.37;69.75
63535;BME280;55128;50.230;18.944;2022-12-18T02:12:25;100010.97;;;-2.39;70.11
63535;BME280;55128;50.230;18.944;2022-12-18T02:17:47;100010.75;;;-2.47;70.21
63535;BME280;55128;50.230;18.944;2022-12-18T02:23:01;100017.50;;;-2.52;70.45
63535;BME280;55128;50.230;18.944;2022-12-18T02:28:06;100026.13;;;-2.55;70.06
63535;BME280;55128;50.230;18.944;2022-12-18T02:33:11;100030.72;;;-2.44;70.11
63535;BME280;55128;50.230;18.944;2022-12-18T02:38:13;100029.75;;;-2.49;70.26
63535;BME280;55128;50.230;18.944;2022-12-18T02:43:15;100038.25;;;-2.55;70.60
63535;BME280;55128;50.230;18.944;2022-12-18T02:48:18;100045.81;;;-2.63;70.70
63535;BME280;55128;50.230;18.944;2022-12-18T02:53:45;100047.78;;;-2.54;70.28
63535;BME280;55128;50.230;18.944;2022-12-18T02:59:13;100060.78;;;-2.54;70.45
63535;BME280;55128;50.230;18.944;2022-12-18T03:04:25;100077.41;;;-2.49;70.29
63535;BME280;55128;50.230;18.944;2022-12-18T03:09:32;100084.34;;;-2.48;70.57
63535;BME280;55128;50.230;18.944;2022-12-18T03:14:34;100077.31;;;-2.52;70.63
63535;BME280;55128;50.230;18.944;2022-12-18T03:19:38;100076.59;;;-2.46;70.33
63535;BME280;55128;50.230;18.944;2022-12-18T03:24:39;100082.59;;;-2.49;70.47
63535;BME280;55128;50.230;18.944;2022-12-18T03:29:43;100074.69;;;-2.52;70.42
63535;BME280;55128;50.230;18.944;2022-12-18T03:34:47;100086.72;;;-2.56;70.51
63535;BME280;55128;50.230;18.944;2022-12-18T03:39:49;100090.94;;;-2.59;70.43
63535;BME280;55128;50.230;18.944;2022-12-18T03:55:50;100107.00;;;-2.72;71.06
63535;BME280;55128;50.230;18.944;2022-12-18T04:00:54;100112.69;;;-2.57;70.62
63535;BME280;55128;50.230;18.944;2022-12-18T04:05:57;100109.53;;;-2.76;71.12
63535;BME280;55128;50.230;18.944;2022-12-18T04:10:59;100117.31;;;-2.76;71.49
63535;BME280;55128;50.230;18.944;2022-12-18T04:16:00;100123.78;;;-2.63;70.96
63535;BME280;55128;50.230;18.944;2022-12-18T04:21:01;100124.31;;;-2.73;70.88
63535;BME280;55128;50.230;18.944;2022-12-18T04:26:02;100127.16;;;-2.65;70.94
63535;BME280;55128;50.230;18.944;2022-12-18T04:31:02;100136.78;;;-2.63;70.75
63535;BME280;55128;50.230;18.944;2022-12-18T04:36:03;100149.63;;;-2.67;70.95
63535;BME280;55128;50.230;18.944;2022-12-18T04:41:04;100146.38;;;-2.60;70.99
63535;BME280;55128;50.230;18.944;2022-12-18T04:46:06;100153.03;;;-2.68;70.81
63535;BME280;55128;50.230;18.944;2022-12-18T04:51:07;100166.13;;;-2.65;70.81
63535;BME280;55128;50.230;18.944;2022-12-18T04:56:10;100171.22;;;-2.68;70.79
63535;BME280;55128;50.230;18.944;2022-12-18T05:01:12;100180.63;;;-2.74;71.15
63535;BME280;55128;50.230;18.944;2022-12-18T05:06:13;100194.34;;;-2.78;71.50
63535;BME280;55128;50.230;18.944;2022-12-18T05:11:14;100188.03;;;-2.84;71.48
63535;BME280;55128;50.230;18.944;2022-12-18T05:16:15;100189.66;;;-2.62;71.59
63535;BME280;55128;50.230;18.944;2022-12-18T05:21:16;100197.13;;;-2.71;70.98
63535;BME280;55128;50.230;18.944;2022-12-18T05:26:17;100193.44;;;-2.78;71.02
63535;BME280;55128;50.230;18.944;2022-12-18T05:31:18;100197.22;;;-2.68;71.11
63535;BME280;55128;50.230;18.944;2022-12-18T05:36:19;100207.63;;;-2.68;71.43
63535;BME280;55128;50.230;18.944;2022-12-18T05:41:19;100207.09;;;-2.58;70.95
63535;BME280;55128;50.230;18.944;2022-12-18T05:46:19;100215.94;;;-2.53;70.66
63535;BME280;55128;50.230;18.944;2022-12-18T05:51:21;100222.69;;;-2.58;70.75
63535;BME280;55128;50.230;18.944;2022-12-18T05:56:22;100222.63;;;-2.60;70.53
63535;BME280;55128;50.230;18.944;2022-12-18T06:01:25;100226.91;;;-2.62;70.69
63535;BME280;55128;50.230;18.944;2022-12-18T06:06:27;100220.34;;;-2.76;71.15
63535;BME280;55128;50.230;18.944;2022-12-18T06:11:27;100237.06;;;-2.69;70.93
63535;BME280;55128;50.230;18.944;2022-12-18T06:16:28;100231.19;;;-2.64;70.86
63535;BME280;55128;50.230;18.944;2022-12-18T06:21:29;100237.84;;;-2.72;70.71
63535;BME280;55128;50.230;18.944;2022-12-18T06:26:30;100251.13;;;-2.88;71.63
63535;BME280;55128;50.230;18.944;2022-12-18T06:31:30;100259.69;;;-2.91;71.41
63535;BME280;55128;50.230;18.944;2022-12-18T06:36:31;100260.44;;;-2.69;71.21
63535;BME280;55128;50.230;18.944;2022-12-18T06:41:31;100273.25;;;-2.76;71.03
63535;BME280;55128;50.230;18.944;2022-12-18T06:46:32;100276.03;;;-2.69;71.27
63535;BME280;55128;50.230;18.944;2022-12-18T06:51:32;100276.84;;;-2.96;71.50
63535;BME280;55128;50.230;18.944;2022-12-18T06:56:32;100285.75;;;-2.64;71.19
63535;BME280;55128;50.230;18.944;2022-12-18T07:01:33;100298.81;;;-2.62;70.85
63535;BME280;55128;50.230;18.944;2022-12-18T07:06:33;100298.69;;;-2.65;70.85
63535;BME280;55128;50.230;18.944;2022-12-18T07:11:33;100299.91;;;-2.56;70.69
63535;BME280;55128;50.230;18.944;2022-12-18T07:16:34;100311.69;;;-2.65;70.71
63535;BME280;55128;50.230;18.944;2022-12-18T07:21:34;100322.63;;;-2.50;70.38
63535;BME280;55128;50.230;18.944;2022-12-18T07:26:35;100331.22;;;-2.52;70.70
63535;BME280;55128;50.230;18.944;2022-12-18T07:31:35;100337.09;;;-2.32;70.24
63535;BME280;55128;50.230;18.944;2022-12-18T07:36:36;100340.94;;;-1.94;69.77
63535;BME280;55128;50.230;18.944;2022-12-18T07:41:36;100339.88;;;-2.01;68.98
63535;BME280;55128;50.230;18.944;2022-12-18T07:46:36;100340.38;;;-1.57;67.88
63535;BME280;55128;50.230;18.944;2022-12-18T07:51:37;100345.75;;;-1.52;66.67
63535;BME280;55128;50.230;18.944;2022-12-18T07:56:37;100331.91;;;-1.78;66.86
63535;BME280;55128;50.230;18.944;2022-12-18T08:01:37;100338.09;;;-1.74;65.46
63535;BME280;55128;50.230;18.944;2022-12-18T08:06:38;100339.16;;;-1.39;65.35
63535;BME280;55128;50.230;18.944;2022-12-18T08:11:38;100345.81;;;-0.90;63.93
63535;BME280;55128;50.230;18.944;2022-12-18T08:16:38;100349.25;;;-0.59;63.55
63535;BME280;55128;50.230;18.944;2022-12-18T08:21:39;100345.44;;;-0.72;62.04
63535;BME280;55128;50.230;18.944;2022-12-18T08:26:39;100350.38;;;0.19;62.28
63535;BME280;55128;50.230;18.944;2022-12-18T08:31:40;100361.09;;;0.69;59.27
63535;BME280;55128;50.230;18.944;2022-12-18T08:36:40;100365.91;;;0.89;59.52
63535;BME280;55128;50.230;18.944;2022-12-18T08:41:41;100372.03;;;3.67;59.00
63535;BME280;55128;50.230;18.944;2022-12-18T08:46:42;100379.34;;;5.31;51.07
63535;BME280;55128;50.230;18.944;2022-12-18T08:51:43;100383.94;;;6.67;44.79
63535;BME280;55128;50.230;18.944;2022-12-18T08:56:43;100394.47;;;6.75;44.34
63535;BME280;55128;50.230;18.944;2022-12-18T09:01:44;100404.06;;;8.64;39.75
63535;BME280;55128;50.230;18.944;2022-12-18T09:06:45;100411.19;;;9.41;39.32
63535;BME280;55128;50.230;18.944;2022-12-18T09:11:45;100410.69;;;8.03;39.71
63535;BME280;55128;50.230;18.944;2022-12-18T09:16:45;100417.06;;;7.68;41.39
63535;BME280;55128;50.230;18.944;2022-12-18T09:21:46;100425.28;;;6.16;41.41
63535;BME280;55128;50.230;18.944;2022-12-18T09:26:46;100418.06;;;5.50;43.75
63535;BME280;55128;50.230;18.944;2022-12-18T09:31:47;100412.97;;;6.78;41.38
63535;BME280;55128;50.230;18.944;2022-12-18T09:36:47;100417.28;;;7.17;40.64
63535;BME280;55128;50.230;18.944;2022-12-18T09:41:53;100421.56;;;5.51;42.25
63535;BME280;55128;50.230;18.944;2022-12-18T09:47:30;100422.47;;;7.39;40.23
63535;BME280;55128;50.230;18.944;2022-12-18T09:52:40;100435.38;;;5.03;41.79
63535;BME280;55128;50.230;18.944;2022-12-18T09:57:48;100429.97;;;3.81;44.63
63535;BME280;55128;50.230;18.944;2022-12-18T10:03:01;100421.59;;;2.73;47.58
63535;BME280;55128;50.230;18.944;2022-12-18T10:08:05;100422.63;;;2.28;48.56
63535;BME280;55128;50.230;18.944;2022-12-18T10:13:34;100412.56;;;2.01;49.19
63535;BME280;55128;50.230;18.944;2022-12-18T10:29:01;100408.25;;;1.13;52.84
63535;BME280;55128;50.230;18.944;2022-12-18T10:34:01;100390.63;;;0.27;54.19
63535;BME280;55128;50.230;18.944;2022-12-18T10:39:20;100392.00;;;0.13;56.40
63535;BME280;55128;50.230;18.944;2022-12-18T10:44:23;100377.41;;;0.21;56.30
63535;BME280;55128;50.230;18.944;2022-12-18T10:49:28;100376.28;;;0.86;54.70
63535;BME280;55128;50.230;18.944;2022-12-18T10:54:29;100385.97;;;1.32;54.49
63535;BME280;55128;50.230;18.944;2022-12-18T10:59:50;100376.38;;;1.31;54.61
63535;BME280;55128;50.230;18.944;2022-12-18T11:04:51;100374.38;;;1.20;52.90
63535;BME280;55128;50.230;18.944;2022-12-18T11:10:02;100369.53;;;0.97;52.57
63535;BME280;55128;50.230;18.944;2022-12-18T11:15:03;100352.22;;;1.02;54.14
63535;BME280;55128;50.230;18.944;2022-12-18T11:20:05;100358.66;;;0.75;53.81
63535;BME280;55128;50.230;18.944;2022-12-18T11:30:36;100366.59;;;0.06;56.46
63535;BME280;55128;50.230;18.944;2022-12-18T11:35:52;100364.50;;;0.27;55.39
63535;BME280;55128;50.230;18.944;2022-12-18T11:40:59;100363.50;;;0.22;56.56
63535;BME280;55128;50.230;18.944;2022-12-18T11:46:06;100370.47;;;0.60;55.35
63535;BME280;55128;50.230;18.944;2022-12-18T11:51:14;100376.50;;;0.19;56.94
63535;BME280;55128;50.230;18.944;2022-12-18T11:56:32;100374.72;;;0.18;56.22
63535;BME280;55128;50.230;18.944;2022-12-18T12:07:09;100385.91;;;0.12;57.02
63535;BME280;55128;50.230;18.944;2022-12-18T12:17:24;100382.81;;;-0.40;57.70
63535;BME280;55128;50.230;18.944;2022-12-18T12:22:41;100390.16;;;0.09;56.48
63535;BME280;55128;50.230;18.944;2022-12-18T12:27:52;100385.72;;;-0.29;57.75
63535;BME280;55128;50.230;18.944;2022-12-18T12:38:12;100393.03;;;-0.49;58.15
63535;BME280;55128;50.230;18.944;2022-12-18T12:53:56;100408.34;;;-0.29;57.37
63535;BME280;55128;50.230;18.944;2022-12-18T12:59:47;100397.09;;;-0.89;58.57
63535;BME280;55128;50.230;18.944;2022-12-18T13:04:36;100400.09;;;-0.76;58.29
63535;BME280;55128;50.230;18.944;2022-12-18T13:10:22;100408.50;;;-1.15;59.73
63535;BME280;55128;50.230;18.944;2022-12-18T13:15:30;100403.84;;;-1.26;60.02
63535;BME280;55128;50.230;18.944;2022-12-18T13:25:41;100422.09;;;-1.24;59.71
63535;BME280;55128;50.230;18.944;2022-12-18T13:30:44;100422.59;;;-1.65;60.89
63535;BME280;55128;50.230;18.944;2022-12-18T13:45:59;100426.19;;;-2.12;62.61
63535;BME280;55128;50.230;18.944;2022-12-18T13:51:04;100425.78;;;-1.99;62.43
63535;BME280;55128;50.230;18.944;2022-12-18T13:56:05;100423.50;;;-2.16;62.35
63535;BME280;55128;50.230;18.944;2022-12-18T14:01:21;100422.13;;;-2.54;63.59
63535;BME280;55128;50.230;18.944;2022-12-18T14:06:23;100426.25;;;-2.61;64.56
63535;BME280;55128;50.230;18.944;2022-12-18T14:11:24;100423.69;;;-2.83;65.24
63535;BME280;55128;50.230;18.944;2022-12-18T14:16:25;100418.38;;;-2.86;65.28
63535;BME280;55128;50.230;18.944;2022-12-18T14:21:27;100431.16;;;-2.92;64.83
63535;BME280;55128;50.230;18.944;2022-12-18T14:26:29;100433.19;;;-3.29;66.37
63535;BME280;55128;50.230;18.944;2022-12-18T14:31:30;100423.72;;;-3.28;66.18
63535;BME280;55128;50.230;18.944;2022-12-18T14:36:31;100430.94;;;-3.42;66.28
63535;BME280;55128;50.230;18.944;2022-12-18T14:41:32;100432.91;;;-3.80;67.54
63535;BME280;55128;50.230;18.944;2022-12-18T14:46:35;100431.31;;;-3.98;66.52
63535;BME280;55128;50.230;18.944;2022-12-18T14:51:37;100438.56;;;-4.10;67.16
63535;BME280;55128;50.230;18.944;2022-12-18T14:56:44;100449.25;;;-4.23;66.77
63535;BME280;55128;50.230;18.944;2022-12-18T15:07:20;100463.19;;;-4.80;67.14
63535;BME280;55128;50.230;18.944;2022-12-18T15:12:32;100459.94;;;-4.94;66.60
63535;BME280;55128;50.230;18.944;2022-12-18T15:17:33;100467.06;;;-5.08;67.46
63535;BME280;55128;50.230;18.944;2022-12-18T15:22:34;100468.28;;;-5.37;66.89
63535;BME280;55128;50.230;18.944;2022-12-18T15:27:36;100473.91;;;-5.63;67.19
63535;BME280;55128;50.230;18.944;2022-12-18T15:32:41;100483.63;;;-5.94;67.91
63535;BME280;55128;50.230;18.944;2022-12-18T15:37:48;100492.97;;;-6.14;68.45
63535;BME280;55128;50.230;18.944;2022-12-18T15:42:58;100490.16;;;-6.35;68.45
63535;BME280;55128;50.230;18.944;2022-12-18T15:48:21;100482.59;;;-6.48;68.33
63535;BME280;55128;50.230;18.944;2022-12-18T15:53:22;100480.66;;;-6.36;68.17
63535;BME280;55128;50.230;18.944;2022-12-18T15:58:23;100486.09;;;-6.64;68.17
63535;BME280;55128;50.230;18.944;2022-12-18T16:03:23;100491.78;;;-6.86;68.67
63535;BME280;55128;50.230;18.944;2022-12-18T16:08:24;100507.19;;;-6.88;68.10
63535;BME280;55128;50.230;18.944;2022-12-18T16:13:24;100504.19;;;-6.95;68.24
63535;BME280;55128;50.230;18.944;2022-12-18T16:18:25;100497.09;;;-6.99;69.53
63535;BME280;55128;50.230;18.944;2022-12-18T16:23:25;100510.69;;;-7.18;69.52
63535;BME280;55128;50.230;18.944;2022-12-18T16:28:27;100513.91;;;-7.22;68.12
63535;BME280;55128;50.230;18.944;2022-12-18T16:33:27;100503.13;;;-7.30;68.25
63535;BME280;55128;50.230;18.944;2022-12-18T16:38:29;100495.59;;;-7.42;69.29
63535;BME280;55128;50.230;18.944;2022-12-18T16:43:34;100499.69;;;-7.46;69.50
63535;BME280;55128;50.230;18.944;2022-12-18T16:48:34;100506.22;;;-7.67;68.41
63535;BME280;55128;50.230;18.944;2022-12-18T16:53:35;100495.09;;;-7.81;70.77
63535;BME280;55128;50.230;18.944;2022-12-18T16:58:35;100492.69;;;-7.48;73.52
63535;BME280;55128;50.230;18.944;2022-12-18T17:03:36;100480.03;;;-7.44;73.80
63535;BME280;55128;50.230;18.944;2022-12-18T17:08:36;100476.19;;;-7.35;75.10
63535;BME280;55128;50.230;18.944;2022-12-18T17:13:36;100464.31;;;-7.17;75.36
63535;BME280;55128;50.230;18.944;2022-12-18T17:18:37;100458.81;;;-7.23;75.01
63535;BME280;55128;50.230;18.944;2022-12-18T17:23:37;100452.59;;;-7.27;75.32
63535;BME280;55128;50.230;18.944;2022-12-18T17:28:38;100451.50;;;-7.47;73.28
63535;BME280;55128;50.230;18.944;2022-12-18T17:33:39;100453.28;;;-7.60;72.34
63535;BME280;55128;50.230;18.944;2022-12-18T17:38:40;100449.53;;;-7.51;74.58
63535;BME280;55128;50.230;18.944;2022-12-18T17:43:40;100471.16;;;-7.49;74.62
63535;BME280;55128;50.230;18.944;2022-12-18T17:48:46;100474.22;;;-7.71;72.93
63535;BME280;55128;50.230;18.944;2022-12-18T17:53:47;100469.84;;;-7.87;73.22
63535;BME280;55128;50.230;18.944;2022-12-18T17:58:48;100470.97;;;-7.52;74.93
63535;BME280;55128;50.230;18.944;2022-12-18T18:03:52;100474.97;;;-7.42;75.31
63535;BME280;55128;50.230;18.944;2022-12-18T18:08:55;100480.63;;;-7.33;76.06
63535;BME280;55128;50.230;18.944;2022-12-18T18:13:55;100469.84;;;-7.26;76.31
63535;BME280;55128;50.230;18.944;2022-12-18T18:19:04;100477.00;;;-7.36;76.61
63535;BME280;55128;50.230;18.944;2022-12-18T18:24:05;100470.91;;;-7.22;75.94
63535;BME280;55128;50.230;18.944;2022-12-18T18:29:07;100469.06;;;-7.39;75.86
63535;BME280;55128;50.230;18.944;2022-12-18T18:34:14;100482.69;;;-7.42;76.15
63535;BME280;55128;50.230;18.944;2022-12-18T18:39:14;100486.34;;;-7.38;76.14
63535;BME280;55128;50.230;18.944;2022-12-18T18:44:16;100489.28;;;-7.47;75.82
63535;BME280;55128;50.230;18.944;2022-12-18T18:49:16;100488.16;;;-7.52;75.92
63535;BME280;55128;50.230;18.944;2022-12-18T18:54:17;100494.44;;;-7.62;76.37
63535;BME280;55128;50.230;18.944;2022-12-18T18:59:17;100516.97;;;-7.74;76.01
63535;BME280;55128;50.230;18.944;2022-12-18T19:04:18;100525.03;;;-7.68;76.46
63535;BME280;55128;50.230;18.944;2022-12-18T19:09:18;100524.06;;;-7.70;75.94
63535;BME280;55128;50.230;18.944;2022-12-18T19:14:18;100524.41;;;-7.79;76.37
63535;BME280;55128;50.230;18.944;2022-12-18T19:19:19;100519.00;;;-7.84;75.95
63535;BME280;55128;50.230;18.944;2022-12-18T19:24:20;100522.31;;;-8.01;76.47
63535;BME280;55128;50.230;18.944;2022-12-18T19:29:20;100524.41;;;-7.94;76.28
63535;BME280;55128;50.230;18.944;2022-12-18T19:34:21;100535.34;;;-7.98;76.08
63535;BME280;55128;50.230;18.944;2022-12-18T19:39:21;100542.28;;;-7.97;76.62
63535;BME280;55128;50.230;18.944;2022-12-18T19:44:21;100545.03;;;-7.94;75.91
63535;BME280;55128;50.230;18.944;2022-12-18T19:49:22;100530.38;;;-7.80;76.03
63535;BME280;55128;50.230;18.944;2022-12-18T19:54:22;100517.22;;;-7.99;76.02
63535;BME280;55128;50.230;18.944;2022-12-18T19:59:22;100511.25;;;-8.13;76.17
63535;BME280;55128;50.230;18.944;2022-12-18T20:04:23;100523.06;;;-8.17;76.88
63535;BME280;55128;50.230;18.944;2022-12-18T20:09:23;100504.41;;;-8.13;76.45
63535;BME280;55128;50.230;18.944;2022-12-18T20:14:23;100507.97;;;-8.11;76.73
63535;BME280;55128;50.230;18.944;2022-12-18T20:19:25;100516.94;;;-8.19;76.61
63535;BME280;55128;50.230;18.944;2022-12-18T20:24:25;100528.63;;;-8.24;77.04
63535;BME280;55128;50.230;18.944;2022-12-18T20:29:26;100511.75;;;-8.34;76.50
63535;BME280;55128;50.230;18.944;2022-12-18T20:34:27;100502.91;;;-8.09;76.85
63535;BME280;55128;50.230;18.944;2022-12-18T20:39:28;100509.31;;;-8.17;77.08
63535;BME280;55128;50.230;18.944;2022-12-18T20:44:29;100495.78;;;-8.28;77.20
63535;BME280;55128;50.230;18.944;2022-12-18T20:49:29;100492.34;;;-8.14;76.50
63535;BME280;55128;50.230;18.944;2022-12-18T20:54:29;100488.63;;;-8.04;76.28
63535;BME280;55128;50.230;18.944;2022-12-18T20:59:30;100486.75;;;-8.07;76.44
63535;BME280;55128;50.230;18.944;2022-12-18T21:04:30;100493.84;;;-8.03;76.65
63535;BME280;55128;50.230;18.944;2022-12-18T21:09:31;100479.91;;;-8.06;76.73
63535;BME280;55128;50.230;18.944;2022-12-18T21:14:32;100471.34;;;-8.05;76.84
63535;BME280;55128;50.230;18.944;2022-12-18T21:19:32;100479.38;;;-8.15;77.33
63535;BME280;55128;50.230;18.944;2022-12-18T21:24:33;100472.94;;;-8.22;76.50
63535;BME280;55128;50.230;18.944;2022-12-18T21:29:33;100469.13;;;-8.29;76.66
63535;BME280;55128;50.230;18.944;2022-12-18T21:34:34;100473.47;;;-8.28;75.31
63535;BME280;55128;50.230;18.944;2022-12-18T21:39:35;100479.88;;;-8.36;75.47
63535;BME280;55128;50.230;18.944;2022-12-18T21:44:35;100478.94;;;-8.66;72.78
63535;BME280;55128;50.230;18.944;2022-12-18T21:49:36;100480.34;;;-9.00;72.19
63535;BME280;55128;50.230;18.944;2022-12-18T21:54:36;100489.25;;;-8.94;71.46
63535;BME280;55128;50.230;18.944;2022-12-18T21:59:38;100481.22;;;-8.99;72.14
63535;BME280;55128;50.230;18.944;2022-12-18T22:04:40;100477.28;;;-9.07;74.62
63535;BME280;55128;50.230;18.944;2022-12-18T22:09:40;100477.16;;;-8.95;75.32
63535;BME280;55128;50.230;18.944;2022-12-18T22:14:41;100479.06;;;-8.93;75.11
63535;BME280;55128;50.230;18.944;2022-12-18T22:19:41;100478.28;;;-8.77;74.95
63535;BME280;55128;50.230;18.944;2022-12-18T22:24:41;100477.03;;;-8.84;73.60
63535;BME280;55128;50.230;18.944;2022-12-18T22:29:42;100484.41;;;-9.03;73.78
63535;BME280;55128;50.230;18.944;2022-12-18T22:35:03;100483.00;;;-8.98;74.22
63535;BME280;55128;50.230;18.944;2022-12-18T22:40:05;100488.09;;;-9.13;72.54
63535;BME280;55128;50.230;18.944;2022-12-18T22:45:05;100478.22;;;-9.33;73.98
63535;BME280;55128;50.230;18.944;2022-12-18T22:50:06;100469.22;;;-9.13;74.89
63535;BME280;55128;50.230;18.944;2022-12-18T22:55:07;100467.72;;;-9.10;74.92
63535;BME280;55128;50.230;18.944;2022-12-18T23:00:08;100468.41;;;-9.12;74.27
63535;BME280;55128;50.230;18.944;2022-12-18T23:05:09;100458.31;;;-9.09;73.18
63535;BME280;55128;50.230;18.944;2022-12-18T23:10:09;100463.72;;;-9.05;73.25
63535;BME280;55128;50.230;18.944;2022-12-18T23:15:10;100460.88;;;-9.09;72.44
63535;BME280;55128;50.230;18.944;2022-12-18T23:20:10;100476.44;;;-9.21;73.68
63535;BME280;55128;50.230;18.944;2022-12-18T23:25:11;100464.75;;;-9.16;74.04
63535;BME280;55128;50.230;18.944;2022-12-18T23:30:11;100475.94;;;-9.15;71.63
63535;BME280;55128;50.230;18.944;2022-12-18T23:35:12;100462.47;;;-9.11;71.63
63535;BME280;55128;50.230;18.944;2022-12-18T23:40:12;100459.44;;;-9.19;71.50
63535;BME280;55128;50.230;18.944;2022-12-18T23:45:12;100462.41;;;-9.26;71.50
63535;BME280;55128;50.230;18.944;2022-12-18T23:50:13;100451.56;;;-9.49;71.55
63535;BME280;55128;50.230;18.944;2022-12-18T23:55:14;100446.19;;;-9.39;72.46
